Time;durP1;ratioP1;P1;durP2;ratioP2;P2;SDS_P1;SDS_P2;PMS_P1;PMS_P2;Temp;Humidity;BMP_temperature;BMP_pressure;BME280_temperature;BME280_humidity;BME280_pressure;Samples;Min_cycle;Max_cycle;Signal;HPM_P1;HPM_P2
2022/10/25 00:03:49;;;;;;;9.60;6.40;;;;;;;14.50;82.84;99631.53;215130;1277;140491;-72
2022/10/25 00:08:53;;;;;;;11.10;6.30;;;;;;;14.47;83.15;99631.58;214676;1277;139521;-72
2022/10/25 00:14:01;;;;;;;17.30;8.40;;;;;;;14.49;83.37;99635.75;215184;1277;140012;-71
2022/10/25 00:19:06;;;;;;;9.30;7.10;;;;;;;14.56;83.50;99639.54;213269;1276;140853;-73
2022/10/25 00:24:11;;;;;;;9.80;6.90;;;;;;;14.60;83.30;99637.05;215526;1276;141395;-69
2022/10/25 00:29:16;;;;;;;7.10;6.30;;;;;;;14.58;83.25;99637.67;215190;1277;140360;-72
2022/10/25 00:34:21;;;;;;;8.50;7.10;;;;;;;14.54;83.50;99644.84;214475;1277;140526;-72
2022/10/25 00:39:26;;;;;;;7.80;7.00;;;;;;;14.59;83.70;99647.66;215301;1278;141039;-70
2022/10/25 00:44:56;;;;;;;12.60;6.80;;;;;;;14.66;83.64;99651.66;215295;1279;141627;-71
2022/10/25 00:50:24;;;;;;;14.00;6.80;;;;;;;14.62;83.56;99651.86;215252;1277;140120;-71
2022/10/25 00:55:28;;;;;;;9.20;6.50;;;;;;;14.59;83.60;99646.10;215224;1277;140413;-73
2022/10/25 01:00:32;;;;;;;11.30;5.30;;;;;;;14.55;83.53;99636.05;215425;1277;141129;-70
2022/10/25 01:05:37;;;;;;;8.80;6.10;;;;;;;14.39;83.38;99623.64;215306;1277;140627;-71
2022/10/25 01:10:41;;;;;;;15.80;8.80;;;;;;;14.29;83.65;99620.80;215129;1278;141273;-70
2022/10/25 01:15:48;;;;;;;8.40;7.00;;;;;;;14.23;83.99;99627.85;215409;1276;140111;-71
2022/10/25 01:21:40;;;;;;;10.30;8.20;;;;;;;14.28;84.09;99629.44;215076;1276;141740;-73
2022/10/25 01:26:55;;;;;;;11.90;7.50;;;;;;;14.35;84.55;99628.23;215171;1278;140653;-72
2022/10/25 01:32:13;;;;;;;11.40;8.70;;;;;;;14.45;84.67;99622.54;215384;1277;140658;-71
2022/10/25 01:37:49;;;;;;;8.40;7.10;;;;;;;14.58;84.69;99615.95;215396;1277;141082;-69
2022/10/25 01:43:22;;;;;;;8.60;7.00;;;;;;;14.55;84.25;99621.89;215071;1277;141018;-75
2022/10/25 01:48:35;;;;;;;10.80;7.10;;;;;;;14.49;84.14;99614.09;215102;1276;140601;-68
2022/10/25 01:53:51;;;;;;;13.20;8.30;;;;;;;14.45;84.23;99602.65;215318;1277;141138;-76
2022/10/25 01:59:18;;;;;;;15.60;9.00;;;;;;;14.46;84.31;99602.82;215265;1278;140378;-67
2022/10/25 02:04:34;;;;;;;11.20;6.30;;;;;;;14.53;84.33;99605.73;215204;1277;141953;-68
2022/10/25 02:10:03;;;;;;;9.70;6.40;;;;;;;14.53;84.30;99603.48;215176;1278;141143;-74
2022/10/25 02:15:19;;;;;;;10.80;7.70;;;;;;;14.44;83.72;99604.63;214959;1278;141985;-71
2022/10/25 02:20:25;;;;;;;9.10;7.00;;;;;;;14.36;83.68;99597.13;215182;1278;140933;-73
2022/10/25 02:25:33;;;;;;;11.40;7.30;;;;;;;14.27;83.29;99601.86;213515;1277;141976;-70
2022/10/25 02:30:41;;;;;;;8.80;7.40;;;;;;;14.13;83.15;99608.11;215517;1277;140998;-74
2022/10/25 02:36:08;;;;;;;7.50;6.80;;;;;;;14.03;83.14;99612.43;215277;1278;139926;-74
2022/10/25 02:41:13;;;;;;;9.90;7.00;;;;;;;13.95;83.14;99603.27;215357;1277;141047;-74
2022/10/25 02:46:19;;;;;;;12.40;7.40;;;;;;;13.89;83.30;99600.70;215460;1277;140719;-74
2022/10/25 02:51:23;;;;;;;11.40;7.50;;;;;;;13.88;83.47;99610.23;215421;1277;140911;-74
2022/10/25 02:56:27;;;;;;;10.60;7.00;;;;;;;13.85;83.82;99600.19;215263;1277;141573;-73
2022/10/25 03:01:34;;;;;;;8.90;7.40;;;;;;;13.84;83.82;99598.80;215391;1277;141192;-74
2022/10/25 03:06:39;;;;;;;8.30;7.50;;;;;;;13.85;84.00;99594.09;215462;1278;139714;-74
2022/10/25 03:11:43;;;;;;;15.50;9.70;;;;;;;13.76;83.81;99592.21;215355;1277;141607;-73
2022/10/25 03:16:48;;;;;;;9.50;8.50;;;;;;;13.72;83.50;99588.88;215275;1277;140608;-74
2022/10/25 03:21:52;;;;;;;12.20;8.70;;;;;;;13.56;83.21;99589.52;215373;1277;140517;-73
2022/10/25 03:26:57;;;;;;;9.80;6.10;;;;;;;13.48;83.21;99586.62;215213;1278;140163;-74
2022/10/25 03:32:02;;;;;;;8.30;7.50;;;;;;;13.37;83.24;99587.30;215308;1277;139663;-73
2022/10/25 03:37:06;;;;;;;18.10;8.50;;;;;;;13.27;83.37;99581.65;214947;1277;141419;-73
2022/10/25 03:42:10;;;;;;;15.90;9.30;;;;;;;13.15;83.26;99587.54;215728;1277;141575;-74
2022/10/25 03:47:15;;;;;;;11.50;8.00;;;;;;;13.11;83.37;99591.41;215578;1277;142087;-74
2022/10/25 03:52:23;;;;;;;14.60;7.70;;;;;;;13.10;83.52;99591.83;215542;1277;142285;-74
2022/10/25 03:57:28;;;;;;;8.80;7.30;;;;;;;13.07;83.51;99599.88;215405;1277;140709;-73
2022/10/25 04:02:32;;;;;;;12.20;7.60;;;;;;;12.97;83.45;99607.69;215500;1277;140668;-72
2022/10/25 04:07:37;;;;;;;12.20;7.80;;;;;;;12.93;83.40;99615.14;215237;1277;140966;-70
2022/10/25 04:12:41;;;;;;;8.40;7.50;;;;;;;12.87;83.19;99618.61;215656;1277;144821;-73
2022/10/25 04:17:51;;;;;;;18.70;9.40;;;;;;;12.72;83.07;99621.02;215517;1277;142166;-73
2022/10/25 04:22:56;;;;;;;8.70;6.50;;;;;;;12.64;83.29;99616.72;215333;1277;141913;-73
2022/10/25 04:28:01;;;;;;;16.40;7.40;;;;;;;12.53;82.60;99611.78;214820;1277;140747;-73
2022/10/25 04:33:06;;;;;;;8.40;7.10;;;;;;;12.35;82.82;99609.38;214224;1277;141089;-72
2022/10/25 04:38:11;;;;;;;9.70;8.30;;;;;;;12.28;82.88;99606.24;214014;1277;152347;-73
2022/10/25 04:43:14;;;;;;;8.60;5.90;;;;;;;12.25;83.43;99605.30;215476;1276;141152;-73
2022/10/25 04:48:19;;;;;;;9.10;7.00;;;;;;;12.22;82.83;99605.11;214689;1277;922147;-74
2022/10/25 04:53:24;;;;;;;12.60;6.40;;;;;;;12.16;83.03;99611.93;215386;1277;141502;-73
2022/10/25 04:58:28;;;;;;;11.50;7.20;;;;;;;12.00;82.29;99611.77;215283;1277;140883;-73
2022/10/25 05:03:34;;;;;;;10.30;9.30;;;;;;;11.75;82.25;99611.45;215070;1278;141147;-73
2022/10/25 05:08:39;;;;;;;11.10;7.10;;;;;;;11.65;82.88;99618.02;215095;1277;140979;-73
2022/10/25 05:13:43;;;;;;;9.00;7.30;;;;;;;11.71;83.21;99623.61;215167;1277;140723;-73
2022/10/25 05:18:49;;;;;;;11.40;7.50;;;;;;;11.74;83.56;99621.90;215229;1277;141317;-71
2022/10/25 05:23:53;;;;;;;10.90;8.10;;;;;;;11.82;83.97;99627.29;215123;1278;141646;-72
2022/10/25 05:29:04;;;;;;;15.50;8.20;;;;;;;11.94;84.12;99629.21;215300;1277;141545;-73
2022/10/25 05:34:13;;;;;;;8.90;6.60;;;;;;;12.00;84.05;99625.80;215239;1277;140598;-70
2022/10/25 05:39:18;;;;;;;17.20;8.00;;;;;;;11.99;83.80;99631.88;215561;1277;140916;-74
2022/10/25 05:44:23;;;;;;;14.80;7.90;;;;;;;12.02;83.77;99630.76;215412;1277;142019;-75
2022/10/25 05:49:27;;;;;;;7.70;6.90;;;;;;;12.03;83.66;99631.85;215464;1276;140919;-76
2022/10/25 05:54:32;;;;;;;28.50;7.70;;;;;;;12.07;83.84;99632.11;215348;1277;141095;-75
2022/10/25 05:59:36;;;;;;;12.40;7.10;;;;;;;12.16;84.11;99643.79;215261;1277;141014;-74
2022/10/25 06:04:40;;;;;;;14.40;7.50;;;;;;;12.30;83.96;99652.55;214823;1277;140139;-74
2022/10/25 06:09:45;;;;;;;8.50;7.30;;;;;;;12.36;84.07;99651.58;215502;1277;140236;-74
2022/10/25 06:14:50;;;;;;;11.70;7.50;;;;;;;12.45;84.34;99659.23;214653;1277;141938;-73
2022/10/25 06:19:55;;;;;;;9.40;6.30;;;;;;;12.53;84.36;99668.67;214706;1277;141322;-75
2022/10/25 06:25:00;;;;;;;10.10;8.00;;;;;;;12.58;84.65;99669.36;212696;1277;141183;-72
2022/10/25 06:30:06;;;;;;;13.50;7.60;;;;;;;12.65;84.86;99675.88;215426;1277;140677;-74
2022/10/25 06:35:11;;;;;;;8.60;7.60;;;;;;;12.77;85.14;99680.90;215553;1277;141064;-74
2022/10/25 06:40:16;;;;;;;12.30;8.50;;;;;;;12.90;85.10;99692.37;214014;1277;140920;-73
2022/10/25 06:45:22;;;;;;;11.90;7.60;;;;;;;13.00;84.99;99696.88;215444;1277;142084;-75
2022/10/25 06:50:27;;;;;;;8.60;7.40;;;;;;;13.07;85.17;99698.14;215006;1278;140041;-74
2022/10/25 06:55:31;;;;;;;14.30;8.30;;;;;;;13.18;85.06;99705.01;215203;1277;141296;-74
2022/10/25 07:00:36;;;;;;;26.30;8.60;;;;;;;13.56;85.37;99698.20;215543;1277;140815;-74
2022/10/25 07:05:41;;;;;;;9.00;7.70;;;;;;;14.31;85.85;99692.33;215436;1277;141569;-73
2022/10/25 07:10:52;;;;;;;9.10;6.20;;;;;;;15.27;85.70;99692.75;215248;1277;160262;-73
2022/10/25 07:16:02;;;;;;;12.50;6.60;;;;;;;16.10;84.59;99693.59;215654;1277;140090;-71
2022/10/25 07:21:08;;;;;;;8.80;6.20;;;;;;;16.46;83.07;99700.59;215003;1277;140638;-75
2022/10/25 07:26:15;;;;;;;9.70;6.10;;;;;;;16.59;81.95;99697.75;215159;1277;141427;-75
2022/10/25 07:31:31;;;;;;;8.10;5.60;;;;;;;16.47;81.41;99691.03;214961;1278;139961;-74
2022/10/25 07:36:36;;;;;;;7.80;6.40;;;;;;;16.40;80.81;99690.12;215485;1277;140338;-70
2022/10/25 07:41:40;;;;;;;5.70;5.30;;;;;;;16.22;80.35;99695.65;215631;1277;141479;-75
2022/10/25 07:46:44;;;;;;;9.10;6.40;;;;;;;15.97;80.12;99699.51;215474;1277;142335;-74
2022/10/25 07:51:47;;;;;;;8.10;6.50;;;;;;;15.96;80.60;99699.73;215345;1277;140434;-74
2022/10/25 07:56:52;;;;;;;8.20;5.80;;;;;;;16.08;80.49;99699.34;213025;1277;141488;-72
2022/10/25 08:01:57;;;;;;;7.80;5.50;;;;;;;16.21;80.74;99702.48;215658;1277;141278;-74
2022/10/25 08:07:02;;;;;;;9.90;4.80;;;;;;;16.39;80.76;99711.00;213818;1279;140718;-71
2022/10/25 08:12:07;;;;;;;9.80;5.80;;;;;;;16.46;80.66;99708.08;213706;1277;140377;-73
2022/10/25 08:17:14;;;;;;;15.00;5.00;;;;;;;16.48;80.50;99712.98;214901;1277;139633;-72
2022/10/25 08:22:18;;;;;;;8.70;5.20;;;;;;;16.57;80.23;99712.77;214694;1278;139864;-75
2022/10/25 08:27:23;;;;;;;10.10;4.40;;;;;;;16.65;79.88;99716.33;215168;1277;160721;-74
2022/10/25 08:32:28;;;;;;;11.40;5.30;;;;;;;16.75;79.64;99717.27;213526;1277;141142;-71
2022/10/25 08:37:33;;;;;;;9.50;4.50;;;;;;;16.88;79.25;99715.25;215646;1277;140742;-74
2022/10/25 08:42:59;;;;;;;6.00;3.90;;;;;;;16.89;78.67;99715.14;214145;1277;141101;-72
2022/10/25 08:48:12;;;;;;;3.90;3.40;;;;;;;16.93;78.70;99722.34;213920;1277;140909;-73
2022/10/25 08:53:35;;;;;;;5.90;4.70;;;;;;;17.03;78.46;99725.75;215334;1277;140692;-71
2022/10/25 08:58:56;;;;;;;4.80;3.70;;;;;;;17.14;78.15;99721.05;215208;1277;140400;-74
2022/10/25 09:04:03;;;;;;;3.60;3.30;;;;;;;17.20;77.95;99715.73;215600;1277;139789;-74
2022/10/25 09:09:25;;;;;;;7.40;4.80;;;;;;;17.25;77.56;99722.77;214889;1277;139935;-74
2022/10/25 09:14:45;;;;;;;5.30;3.90;;;;;;;17.27;77.44;99733.64;215322;1277;140393;-73
2022/10/25 09:20:01;;;;;;;7.10;4.60;;;;;;;17.38;77.37;99733.73;215703;1277;139621;-74
2022/10/25 09:25:15;;;;;;;6.30;3.90;;;;;;;17.39;76.99;99736.80;215346;1277;143139;-74
2022/10/25 09:30:20;;;;;;;8.60;5.20;;;;;;;17.36;76.75;99738.23;215299;1278;140032;-74
2022/10/25 09:35:55;;;;;;;4.90;4.50;;;;;;;17.38;76.94;99737.13;215630;1277;139977;-74
2022/10/25 09:41:10;;;;;;;5.60;4.30;;;;;;;17.43;76.40;99740.97;215385;1277;140855;-74
2022/10/25 09:46:35;;;;;;;9.10;3.20;;;;;;;17.34;76.04;99740.06;215624;1277;139955;-74
2022/10/25 09:51:58;;;;;;;5.20;4.30;;;;;;;17.38;76.10;99739.89;215479;1277;141186;-73
2022/10/25 09:57:03;;;;;;;5.20;4.30;;;;;;;17.32;76.01;99739.38;213814;1277;139357;-74
2022/10/25 10:02:14;;;;;;;7.30;4.50;;;;;;;17.34;76.00;99737.70;215499;1277;141357;-73
2022/10/25 10:07:36;;;;;;;10.80;5.10;;;;;;;17.44;75.95;99732.71;215640;1277;140189;-73
2022/10/25 10:13:17;;;;;;;7.80;4.00;;;;;;;17.44;75.67;99740.86;213685;1277;140708;-74
2022/10/25 10:18:24;;;;;;;4.80;4.30;;;;;;;17.22;75.40;99750.20;214782;1277;140315;-73
2022/10/25 10:23:49;;;;;;;6.40;4.50;;;;;;;17.26;75.84;99743.98;214926;1277;140745;-74
2022/10/25 10:29:15;;;;;;;4.80;4.40;;;;;;;17.54;75.82;99740.84;214984;1277;139813;-74
2022/10/25 10:34:43;;;;;;;8.50;4.00;;;;;;;17.59;75.48;99736.02;215001;1276;139989;-75
2022/10/25 10:39:50;;;;;;;9.10;4.50;;;;;;;17.43;75.20;99739.73;215284;1277;139715;-75
2022/10/25 10:45:07;;;;;;;8.30;5.20;;;;;;;17.39;75.03;99743.48;215633;1277;141270;-75
2022/10/25 10:50:20;;;;;;;;;;;;;;;17.44;75.42;99750.71;214100;1277;141408;-73
2022/10/25 10:55:45;;;;;;;6.30;4.10;;;;;;;17.49;75.54;99748.48;215645;1277;128409;-73
2022/10/25 11:01:05;;;;;;;7.80;4.40;;;;;;;17.55;75.01;99750.81;215580;1277;142053;-74
2022/10/25 11:06:35;;;;;;;9.00;4.20;;;;;;;17.60;74.76;99752.23;215343;1275;140119;-74
2022/10/25 11:11:40;;;;;;;9.00;4.70;;;;;;;17.62;74.72;99755.08;215452;1277;139771;-73
2022/10/25 11:17:06;;;;;;;16.10;4.90;;;;;;;17.64;74.51;99751.90;215219;1276;142176;-73
2022/10/25 11:22:17;;;;;;;4.70;4.30;;;;;;;17.63;74.11;99749.11;215378;1277;140816;-72
2022/10/25 11:27:49;;;;;;;9.10;4.90;;;;;;;17.66;74.12;99746.08;215500;1277;140903;-73
2022/10/25 11:33:12;;;;;;;12.30;4.70;;;;;;;17.61;73.69;99749.77;215474;1277;142252;-73
2022/10/25 11:38:48;;;;;;;9.80;3.30;;;;;;;17.70;73.34;99748.73;215352;1277;142160;-74
2022/10/25 11:44:23;;;;;;;4.40;2.60;;;;;;;17.84;73.45;99756.02;215404;1277;140893;-75
2022/10/25 11:49:37;;;;;;;9.30;3.80;;;;;;;17.75;72.31;99760.46;215367;1277;140954;-74
2022/10/25 11:54:52;;;;;;;4.40;3.00;;;;;;;17.67;72.38;99765.69;215412;1276;140607;-73
2022/10/25 12:00:03;;;;;;;5.80;2.80;;;;;;;17.76;72.42;99765.40;215427;1276;151646;-74
2022/10/25 12:05:35;;;;;;;5.60;3.30;;;;;;;17.90;72.03;99768.11;215416;1276;141159;-75
2022/10/25 12:10:46;;;;;;;9.50;4.30;;;;;;;17.82;71.69;99772.80;214328;1277;141475;-73
2022/10/25 12:15:54;;;;;;;7.00;3.20;;;;;;;17.70;71.71;99769.88;215626;1277;141967;-73
2022/10/25 12:21:00;;;;;;;5.40;4.30;;;;;;;17.87;71.79;99769.15;213591;1278;141396;-72
2022/10/25 12:26:14;;;;;;;9.70;4.40;;;;;;;17.90;71.70;99766.98;215032;1277;141126;-71
2022/10/25 12:31:35;;;;;;;6.80;3.90;;;;;;;17.80;71.49;99770.11;214215;1277;142075;-72
2022/10/25 12:36:46;;;;;;;5.70;3.60;;;;;;;17.68;71.79;99766.61;215033;1277;140397;-71
2022/10/25 12:42:03;;;;;;;3.80;3.50;;;;;;;17.68;71.91;99768.88;212486;1278;141929;-70
2022/10/25 12:47:22;;;;;;;3.00;2.50;;;;;;;17.69;71.70;99764.12;214766;1277;139441;-72
2022/10/25 12:52:35;;;;;;;3.10;2.20;;;;;;;17.65;71.47;99765.32;215288;1277;139828;-71
2022/10/25 12:58:08;;;;;;;6.10;2.50;;;;;;;17.57;71.10;99771.66;215211;1277;140359;-71
2022/10/25 13:03:45;;;;;;;3.10;2.50;;;;;;;17.52;71.07;99773.51;215385;1277;141813;-70
2022/10/25 13:08:51;;;;;;;3.60;2.60;;;;;;;17.55;71.16;99774.96;214706;1277;139720;-73
2022/10/25 13:13:56;;;;;;;3.00;2.50;;;;;;;17.60;70.99;99774.65;215283;1277;140926;-73
2022/10/25 13:19:21;;;;;;;6.50;3.60;;;;;;;17.67;70.89;99781.23;215205;1277;141349;-73
2022/10/25 13:24:45;;;;;;;5.40;2.40;;;;;;;17.63;70.85;99785.44;213844;1278;142538;-71
2022/10/25 13:30:09;;;;;;;5.20;2.50;;;;;;;17.51;70.73;99789.91;215292;1277;139345;-71
2022/10/25 13:35:20;;;;;;;4.80;2.30;;;;;;;17.32;70.56;99794.34;215172;1277;140008;-70
2022/10/25 13:40:29;;;;;;;7.60;2.30;;;;;;;17.16;70.58;99794.84;215248;1277;140329;-72
2022/10/25 13:45:41;;;;;;;5.90;2.50;;;;;;;17.08;70.82;99795.70;215173;1277;162220;-76
2022/10/25 13:50:55;;;;;;;13.10;6.60;;;;;;;17.07;71.05;99796.40;215004;1277;140256;-74
2022/10/25 13:56:05;;;;;;;9.50;3.40;;;;;;;17.26;70.98;99796.47;215129;1278;141316;-74
2022/10/25 14:01:14;;;;;;;4.00;2.90;;;;;;;17.43;70.85;99793.29;215099;1277;141484;-73
2022/10/25 14:06:30;;;;;;;9.90;3.90;;;;;;;17.49;70.78;99796.17;215317;1277;140725;-76
2022/10/25 14:11:40;;;;;;;11.60;7.60;;;;;;;17.63;70.68;99794.50;215003;1277;140043;-70
2022/10/25 14:17:14;;;;;;;6.70;3.50;;;;;;;17.70;70.40;99795.88;215162;1277;140293;-76
2022/10/25 14:22:33;;;;;;;7.70;4.50;;;;;;;17.60;70.12;99802.86;215402;1277;140664;-70
2022/10/25 14:27:37;;;;;;;4.20;3.90;;;;;;;17.38;70.28;99806.27;213750;1278;140868;-71
2022/10/25 14:32:53;;;;;;;7.40;3.80;;;;;;;17.28;70.60;99810.15;215243;1277;140285;-76
2022/10/25 14:38:03;;;;;;;5.90;3.70;;;;;;;17.06;70.39;99809.86;215141;1276;140822;-76
2022/10/25 14:43:22;;;;;;;4.30;3.90;;;;;;;16.93;70.71;99811.73;214612;1277;141149;-73
2022/10/25 14:48:27;;;;;;;2.80;2.60;;;;;;;16.79;70.78;99812.70;213965;1277;141068;-73
2022/10/25 14:53:31;;;;;;;5.10;3.50;;;;;;;16.59;70.94;99814.66;215446;1277;140907;-73
2022/10/25 14:58:43;;;;;;;5.40;3.60;;;;;;;16.42;71.13;99815.98;215232;1278;140956;-75
2022/10/25 15:03:51;;;;;;;6.20;3.00;;;;;;;16.32;71.34;99815.06;215047;1277;140317;-74
2022/10/25 15:08:59;;;;;;;8.00;2.90;;;;;;;16.21;71.48;99823.89;215054;1278;140275;-76
2022/10/25 15:14:28;;;;;;;5.20;2.60;;;;;;;16.04;71.73;99826.58;215338;1278;139917;-77
2022/10/25 15:20:00;;;;;;;8.60;3.80;;;;;;;15.83;71.84;99825.80;215133;1278;140169;-76
2022/10/25 15:25:17;;;;;;;6.10;2.60;;;;;;;15.61;72.12;99823.30;215380;1277;141833;-77
2022/10/25 15:30:40;;;;;;;9.20;3.30;;;;;;;15.50;72.38;99824.16;215387;1277;140300;-78
2022/10/25 15:35:50;;;;;;;5.30;3.60;;;;;;;15.38;72.83;99830.49;215337;1277;139867;-77
2022/10/25 15:40:56;;;;;;;6.10;3.30;;;;;;;15.26;73.13;99838.05;215080;1278;140931;-75
2022/10/25 15:46:01;;;;;;;5.80;4.00;;;;;;;15.22;73.33;99845.98;215109;1279;142544;-75
2022/10/25 15:51:05;;;;;;;8.20;4.30;;;;;;;15.16;73.42;99852.34;215062;1277;140116;-76
2022/10/25 15:56:14;;;;;;;6.50;4.00;;;;;;;15.07;73.64;99856.05;215140;1278;141199;-71
2022/10/25 16:01:19;;;;;;;9.10;4.00;;;;;;;14.96;73.79;99864.33;215332;1278;139490;-78
2022/10/25 16:06:23;;;;;;;6.70;3.70;;;;;;;14.84;73.88;99865.82;215219;1278;140390;-79
2022/10/25 16:11:27;;;;;;;7.70;3.60;;;;;;;14.76;74.08;99871.45;215221;1277;141061;-81
2022/10/25 16:16:31;;;;;;;5.20;3.30;;;;;;;14.77;74.59;99872.09;215303;1277;139706;-80
2022/10/25 16:21:44;;;;;;;6.30;2.80;;;;;;;14.79;74.72;99872.97;215146;1279;140329;-81
2022/10/25 16:26:48;;;;;;;7.90;3.50;;;;;;;14.74;74.56;99873.41;214971;1278;140360;-75
2022/10/25 16:31:52;;;;;;;10.30;3.10;;;;;;;14.72;74.75;99870.71;215164;1278;140738;-76
2022/10/25 16:36:59;;;;;;;4.70;3.00;;;;;;;14.70;74.71;99870.64;215311;1276;140299;-77
2022/10/25 16:42:03;;;;;;;9.40;3.80;;;;;;;14.65;74.92;99877.39;215305;1277;140541;-74
2022/10/25 16:47:07;;;;;;;4.90;2.90;;;;;;;14.59;74.89;99883.09;215050;1277;338475;-76
2022/10/25 16:52:10;;;;;;;8.00;3.30;;;;;;;14.52;75.02;99890.48;215055;1277;141354;-76
2022/10/25 16:57:13;;;;;;;9.60;4.50;;;;;;;14.45;74.89;99899.00;215258;1278;139918;-75
2022/10/25 17:02:20;;;;;;;5.70;3.30;;;;;;;14.34;74.98;99900.83;215150;1278;140337;-74
2022/10/25 17:07:23;;;;;;;7.20;4.20;;;;;;;14.25;75.38;99898.01;215256;1278;140172;-74
2022/10/25 17:12:27;;;;;;;6.30;4.20;;;;;;;14.20;75.57;99900.59;215464;1277;141975;-74
2022/10/25 17:17:31;;;;;;;17.30;5.30;;;;;;;14.21;75.92;99902.21;215313;1278;141179;-75
2022/10/25 17:22:36;;;;;;;6.10;4.20;;;;;;;14.22;76.13;99905.48;215220;1278;140587;-74
2022/10/25 17:27:46;;;;;;;8.30;5.20;;;;;;;14.20;76.31;99904.94;215258;1278;140812;-74
2022/10/25 17:32:50;;;;;;;5.00;4.60;;;;;;;14.19;76.32;99909.33;214466;1278;140388;-73
2022/10/25 17:37:54;;;;;;;13.50;7.00;;;;;;;14.13;76.41;99912.20;215073;1278;140940;-72
2022/10/25 17:42:59;;;;;;;7.20;5.00;;;;;;;14.06;76.66;99914.51;215145;1277;141153;-77
2022/10/25 17:48:05;;;;;;;6.80;5.80;;;;;;;14.02;76.66;99923.48;215208;1278;140561;-79
2022/10/25 17:53:10;;;;;;;7.80;6.80;;;;;;;13.92;76.62;99926.59;215034;1278;140073;-78
2022/10/25 17:58:19;;;;;;;12.60;5.90;;;;;;;13.82;76.97;99929.90;215030;1277;139702;-78
2022/10/25 18:03:24;;;;;;;12.80;6.80;;;;;;;13.75;77.14;99932.78;215321;1278;140550;-75
2022/10/25 18:08:29;;;;;;;7.70;6.00;;;;;;;13.73;77.01;99933.67;214973;1277;140930;-71
2022/10/25 18:13:35;;;;;;;13.40;7.00;;;;;;;13.68;77.15;99940.64;215050;1278;143410;-69
2022/10/25 18:18:40;;;;;;;9.00;7.00;;;;;;;13.61;77.32;99938.61;215328;1278;140261;-72
2022/10/25 18:23:44;;;;;;;12.80;7.40;;;;;;;13.56;77.42;99942.04;214936;1278;140531;-74
2022/10/25 18:28:53;;;;;;;11.50;6.70;;;;;;;13.52;77.41;99937.04;215004;1278;142025;-73
2022/10/25 18:34:03;;;;;;;13.50;7.00;;;;;;;13.46;77.22;99933.50;215145;1278;140948;-74
2022/10/25 18:39:08;;;;;;;9.50;6.20;;;;;;;13.40;77.20;99935.09;215206;1278;140450;-71
2022/10/25 18:44:14;;;;;;;6.30;5.00;;;;;;;13.29;77.48;99937.29;215047;1278;139882;-69
2022/10/25 18:49:19;;;;;;;9.40;6.20;;;;;;;13.19;77.60;99939.97;215081;1279;140865;-72
2022/10/25 18:54:28;;;;;;;8.80;5.20;;;;;;;13.19;77.66;99944.14;214788;1279;141595;-72
2022/10/25 18:59:32;;;;;;;10.30;5.80;;;;;;;13.17;77.95;99942.73;214809;1277;143325;-73
2022/10/25 19:04:38;;;;;;;14.00;6.40;;;;;;;13.12;78.34;99948.02;215331;1277;140771;-72
2022/10/25 19:09:43;;;;;;;15.00;6.40;;;;;;;13.10;78.36;99957.15;214830;1277;139799;-71
2022/10/25 19:14:47;;;;;;;10.30;6.60;;;;;;;13.12;78.77;99958.09;215254;1277;141164;-71
2022/10/25 19:19:52;;;;;;;11.00;6.30;;;;;;;13.14;78.72;99959.43;215134;1278;141411;-75
2022/10/25 19:24:56;;;;;;;16.00;6.00;;;;;;;13.16;78.50;99963.86;215130;1278;142403;-70
2022/10/25 19:30:06;;;;;;;7.20;4.40;;;;;;;13.12;78.83;99959.52;215281;1277;143059;-73
2022/10/25 19:35:09;;;;;;;13.20;4.90;;;;;;;13.10;78.46;99962.80;215127;1278;152206;-75
2022/10/25 19:40:14;;;;;;;10.00;4.90;;;;;;;13.09;78.48;99967.35;214457;1279;141068;-68
2022/10/25 19:45:20;;;;;;;10.80;5.20;;;;;;;13.05;78.29;99976.01;215151;1279;141919;-69
2022/10/25 19:50:24;;;;;;;11.30;6.00;;;;;;;12.96;78.10;99973.65;214291;1279;141191;-73
2022/10/25 19:55:28;;;;;;;6.10;4.60;;;;;;;12.86;78.14;99975.48;215112;1279;141159;-68
2022/10/25 20:00:32;;;;;;;5.80;4.50;;;;;;;12.77;78.25;99972.80;215088;1279;139487;-70
2022/10/25 20:05:35;;;;;;;5.60;4.70;;;;;;;12.68;77.92;99975.45;215097;1279;141206;-74
2022/10/25 20:10:40;;;;;;;10.70;5.80;;;;;;;12.55;77.78;99979.16;215032;1279;141008;-69
2022/10/25 20:15:51;;;;;;;11.30;5.70;;;;;;;12.45;78.19;99990.59;215000;1279;140854;-70
2022/10/25 20:21:06;;;;;;;8.50;4.60;;;;;;;12.35;78.01;100001.63;214996;1279;140249;-70
2022/10/25 20:26:15;;;;;;;8.80;4.60;;;;;;;12.23;78.31;99998.94;214938;1279;141122;-73
2022/10/25 20:31:21;;;;;;;5.60;4.60;;;;;;;12.13;78.28;99999.24;214987;1279;140535;-71
2022/10/25 20:36:26;;;;;;;5.40;4.40;;;;;;;12.06;78.53;100004.14;215170;1277;142059;-75
2022/10/25 20:41:34;;;;;;;4.60;4.10;;;;;;;12.00;78.51;100008.29;214229;1277;141545;-72
2022/10/25 20:46:42;;;;;;;7.60;5.30;;;;;;;11.94;78.74;100013.61;214958;1278;140837;-80
2022/10/25 20:51:46;;;;;;;;;;;;;;;11.90;79.01;100011.40;214149;1277;139793;-74
2022/10/25 20:56:50;;;;;;;6.10;4.50;;;;;;;11.86;79.17;100011.85;215836;1278;128554;-69
2022/10/25 21:01:56;;;;;;;7.10;4.80;;;;;;;11.83;79.01;100019.92;215242;1277;141393;-74
2022/10/25 21:07:01;;;;;;;8.60;4.80;;;;;;;11.79;78.97;100020.77;215356;1277;140194;-74
2022/10/25 21:12:04;;;;;;;6.70;4.00;;;;;;;11.71;79.07;100021.19;214869;1277;139935;-74
2022/10/25 21:17:08;;;;;;;8.30;4.20;;;;;;;11.61;78.86;100019.48;214320;1277;141041;-71
2022/10/25 21:22:12;;;;;;;11.50;4.70;;;;;;;11.52;78.76;100018.54;215184;1277;142125;-73
2022/10/25 21:27:16;;;;;;;14.20;4.50;;;;;;;11.43;78.83;100016.62;214967;1277;140681;-73
2022/10/25 21:32:20;;;;;;;3.80;3.50;;;;;;;11.39;79.07;100015.29;215178;1278;140368;-70
2022/10/25 21:37:24;;;;;;;11.10;4.60;;;;;;;11.33;79.21;100013.34;214978;1278;140009;-71
2022/10/25 21:42:31;;;;;;;4.60;4.20;;;;;;;11.33;79.55;100019.01;213773;1278;151060;-71
2022/10/25 21:47:35;;;;;;;6.10;5.10;;;;;;;11.35;79.62;100019.26;215101;1278;141064;-76
2022/10/25 21:52:39;;;;;;;15.40;5.20;;;;;;;11.39;79.98;100020.33;214489;1278;141166;-73
2022/10/25 21:57:42;;;;;;;12.90;5.70;;;;;;;11.43;80.28;100023.99;214953;1277;141133;-75
2022/10/25 22:02:48;;;;;;;6.40;4.80;;;;;;;11.54;80.65;100029.31;215308;1277;140384;-75
2022/10/25 22:07:52;;;;;;;9.10;6.30;;;;;;;11.57;80.21;100025.90;215159;1277;140694;-73
2022/10/25 22:12:56;;;;;;;6.50;5.20;;;;;;;11.53;80.28;100028.48;215099;1277;140363;-76
2022/10/25 22:17:59;;;;;;;11.40;6.10;;;;;;;11.51;80.35;100024.48;215337;1277;141959;-77
2022/10/25 22:23:03;;;;;;;11.60;5.70;;;;;;;11.51;80.30;100029.67;215343;1277;142369;-73
2022/10/25 22:28:06;;;;;;;10.40;6.10;;;;;;;11.43;79.96;100035.99;215377;1277;142028;-73
2022/10/25 22:33:12;;;;;;;6.80;4.90;;;;;;;11.34;80.16;100030.88;215172;1277;143227;-75
2022/10/25 22:38:18;;;;;;;7.00;5.70;;;;;;;11.32;80.31;100031.79;215328;1277;141739;-75
2022/10/25 22:43:23;;;;;;;8.50;6.40;;;;;;;11.28;80.45;100030.34;215130;1277;142325;-79
2022/10/25 22:48:34;;;;;;;6.90;6.20;;;;;;;11.30;80.95;100029.09;215036;1277;141923;-77
2022/10/25 22:56:20;;;;;;;7.00;6.30;;;;;;;11.31;80.92;100029.82;209228;1332;658004;-78
2022/10/25 23:01:28;;;;;;;14.70;7.50;;;;;;;11.32;81.02;100027.11;207751;1310;140961;-75
2022/10/25 23:06:38;;;;;;;8.80;6.80;;;;;;;11.36;81.12;100026.92;205167;1301;247063;-74
2022/10/25 23:11:42;;;;;;;7.10;6.30;;;;;;;11.37;81.00;100034.41;208224;1302;139813;-75
2022/10/25 23:16:46;;;;;;;17.60;7.20;;;;;;;11.35;80.84;100040.36;207154;1292;139995;-75
2022/10/25 23:21:50;;;;;;;19.70;5.80;;;;;;;11.31;80.81;100049.92;207814;1310;142093;-74
2022/10/25 23:26:54;;;;;;;11.10;7.60;;;;;;;11.18;80.66;100049.25;208032;1307;139912;-77
2022/10/25 23:31:59;;;;;;;8.50;6.80;;;;;;;11.12;80.83;100059.31;208118;1304;140714;-83
2022/10/25 23:37:03;;;;;;;11.50;6.90;;;;;;;11.16;81.41;100058.92;207992;1307;140737;-81
2022/10/25 23:42:07;;;;;;;13.50;7.50;;;;;;;11.18;81.38;100060.71;208597;1295;142270;-79